Time;durP1;ratioP1;P1;durP2;ratioP2;P2;SDS_P1;SDS_P2;PMS_P1;PMS_P2;Temp;Humidity;BMP_temperature;BMP_pressure;BME280_temperature;BME280_humidity;BME280_pressure;Samples;Min_cycle;Max_cycle;Signal;HPM_P1;HPM_P2
2023/10/09 00:01:12;;;;;;;12.02;5.10;;;;;;;15.94;58.86;100168.03;4994358;28;20058;-77
2023/10/09 00:03:43;;;;;;;12.25;5.15;;;;;;;15.90;59.72;100156.72;4991065;28;20054;-75
2023/10/09 00:06:13;;;;;;;11.45;5.15;;;;;;;15.90;58.97;100143.47;4969972;28;20446;-77
2023/10/09 00:08:44;;;;;;;9.95;5.25;;;;;;;15.89;59.18;100130.31;4994309;28;20051;-76
2023/10/09 00:11:17;;;;;;;13.32;6.15;;;;;;;15.88;59.32;100104.72;4994334;28;20050;-76
2023/10/09 00:13:48;;;;;;;16.52;6.43;;;;;;;15.86;59.61;100106.66;4976612;28;20108;-76
2023/10/09 00:16:18;;;;;;;12.07;5.93;;;;;;;15.85;59.73;100126.19;4977027;28;20523;-75
2023/10/09 00:18:46;;;;;;;13.20;6.10;;;;;;;15.84;59.77;100140.41;4994294;28;20054;-76
2023/10/09 00:21:20;;;;;;;10.48;5.10;;;;;;;15.82;60.48;100142.34;4994136;28;20086;-76
2023/10/09 00:23:54;;;;;;;10.55;4.93;;;;;;;15.82;60.01;100131.72;4993597;28;20050;-76
2023/10/09 00:26:21;;;;;;;11.15;4.78;;;;;;;15.82;60.01;100135.25;4994288;28;20490;-75
2023/10/09 00:28:50;;;;;;;18.20;6.75;;;;;;;15.82;60.28;100118.47;4976710;28;20050;-76
2023/10/09 00:31:27;;;;;;;10.73;6.43;;;;;;;15.81;60.31;100116.78;4994171;28;20129;-76
2023/10/09 00:33:54;;;;;;;13.85;6.00;;;;;;;15.81;60.50;100119.44;4993415;28;20042;-76
2023/10/09 00:36:27;;;;;;;11.38;6.03;;;;;;;15.82;60.63;100102.53;4993673;28;20133;-76
2023/10/09 00:38:54;;;;;;;12.43;6.82;;;;;;;15.82;60.80;100103.38;4994037;28;20117;-77
2023/10/09 00:41:24;;;;;;;13.15;6.78;;;;;;;15.83;60.93;100101.56;4993974;28;20065;-76
2023/10/09 00:43:52;;;;;;;12.45;7.72;;;;;;;15.85;61.12;100120.91;4993392;28;20042;-76
2023/10/09 00:48:49;;;;;;;19.10;8.88;;;;;;;15.88;62.07;100125.97;4974844;28;20050;-76
2023/10/09 00:51:18;;;;;;;18.88;8.98;;;;;;;15.92;62.06;100127.44;4974871;28;20047;-76
2023/10/09 00:53:50;;;;;;;19.20;9.95;;;;;;;15.96;62.48;100126.28;4989147;28;20146;-76
2023/10/09 00:58:59;;;;;;;17.20;9.20;;;;;;;16.07;63.03;100124.66;4993437;28;20108;-76
2023/10/09 01:01:50;;;;;;;20.55;10.18;;;;;;;16.13;62.97;100135.66;4976039;28;20046;-77
2023/10/09 01:04:17;;;;;;;17.70;9.52;;;;;;;16.22;62.69;100128.78;4992995;28;20042;-75
2023/10/09 01:07:04;;;;;;;21.70;10.48;;;;;;;16.27;62.77;100139.09;4992584;28;20786;-76
2023/10/09 01:09:37;;;;;;;20.30;10.38;;;;;;;16.34;62.66;100115.56;4970460;28;20495;-76
2023/10/09 01:12:04;;;;;;;;;;;;;;;16.37;62.86;100118.00;4993912;28;20058;-76
2023/10/09 01:14:35;;;;;;;16.10;9.18;;;;;;;16.46;62.20;100111.97;4993219;28;19922;-77
2023/10/09 01:17:11;;;;;;;22.20;10.65;;;;;;;16.49;62.54;100113.56;4992628;28;20049;-75
2023/10/09 01:19:38;;;;;;;27.25;12.00;;;;;;;16.52;62.78;100108.00;4992846;28;20502;-76
2023/10/09 01:22:12;;;;;;;25.58;12.32;;;;;;;16.55;62.93;100099.78;4992915;28;20089;-75
2023/10/09 01:24:39;;;;;;;20.77;11.32;;;;;;;16.59;62.95;100087.13;4993027;28;20133;-76
2023/10/09 01:27:14;;;;;;;20.63;12.10;;;;;;;16.63;63.21;100080.59;4975336;28;20121;-76
2023/10/09 01:29:43;;;;;;;22.98;12.65;;;;;;;16.66;63.28;100075.03;4992699;28;20494;-75
2023/10/09 01:32:16;;;;;;;25.38;12.68;;;;;;;16.69;63.17;100082.78;4992832;28;20112;-76
2023/10/09 01:37:18;;;;;;;27.10;12.48;;;;;;;16.77;63.46;100079.50;4992639;28;19921;-76
2023/10/09 01:39:48;;;;;;;20.88;11.93;;;;;;;16.79;62.88;100083.75;4992698;28;20054;-77
2023/10/09 01:44:58;;;;;;;20.15;12.27;;;;;;;16.79;62.95;100067.78;4992473;28;20054;-76
2023/10/09 01:47:31;;;;;;;22.48;13.02;;;;;;;16.80;63.02;100066.84;4992563;28;20146;-76
2023/10/09 01:49:58;;;;;;;24.00;12.40;;;;;;;16.80;63.08;100061.53;4992404;28;20168;-76
2023/10/09 01:52:25;;;;;;;21.17;13.15;;;;;;;16.82;63.16;100072.00;4992544;28;20061;-76
2023/10/09 01:54:53;;;;;;;23.00;13.80;;;;;;;16.80;63.28;100058.88;4992393;28;20046;-77
2023/10/09 01:57:23;;;;;;;20.60;12.98;;;;;;;16.82;63.19;100060.56;4992072;28;20046;-76
2023/10/09 01:59:53;;;;;;;27.50;14.95;;;;;;;16.83;63.15;100062.25;4991491;28;20078;-78
2023/10/09 02:02:26;;;;;;;26.77;14.32;;;;;;;16.82;63.38;100065.88;4967965;28;20054;-75
2023/10/09 02:05:05;;;;;;;24.92;14.68;;;;;;;16.81;63.48;100054.38;4992238;28;20061;-76
2023/10/09 02:07:40;;;;;;;26.70;15.00;;;;;;;16.80;63.39;100050.91;4992074;28;20117;-76
2023/10/09 02:10:21;;;;;;;27.05;15.75;;;;;;;16.83;63.71;100059.59;4991847;28;20061;-76
2023/10/09 02:12:57;;;;;;;26.77;14.38;;;;;;;16.84;63.63;100054.16;4992301;28;20117;-76
2023/10/09 02:26:09;;;;;;;28.77;14.82;;;;;;;16.90;63.38;100039.53;4991737;28;20074;-76
2023/10/09 02:28:36;;;;;;;25.52;14.60;;;;;;;16.90;63.45;100047.50;4991817;28;20050;-77
2023/10/09 02:31:13;;;;;;;23.10;14.15;;;;;;;16.88;64.36;100039.66;4974081;28;20691;-76
2023/10/09 02:33:40;;;;;;;29.05;15.18;;;;;;;16.93;63.43;100036.59;4991804;28;20053;-76
2023/10/09 02:36:07;;;;;;;27.52;15.30;;;;;;;16.94;63.42;100033.00;4991549;28;20463;-77
2023/10/09 02:38:37;;;;;;;27.52;14.88;;;;;;;16.94;63.37;100028.50;4974405;28;20066;-76
2023/10/09 02:41:20;;;;;;;25.65;14.50;;;;;;;16.95;63.34;100029.38;4991148;28;20058;-76
2023/10/09 02:43:47;;;;;;;23.63;14.35;;;;;;;16.98;63.41;100023.81;4974460;28;20050;-75
2023/10/09 02:46:18;;;;;;;25.40;14.27;;;;;;;16.99;63.47;100024.63;4991502;28;20149;-76
2023/10/09 02:48:52;;;;;;;27.33;15.35;;;;;;;17.00;63.41;100008.56;4991609;28;20046;-76
2023/10/09 02:53:56;;;;;;;27.83;14.45;;;;;;;17.03;63.43;100010.13;4991155;28;20050;-76
2023/10/09 02:56:42;;;;;;;35.28;14.77;;;;;;;17.04;63.38;100002.06;4983658;28;20058;-76
2023/10/09 02:59:09;;;;;;;25.40;13.95;;;;;;;17.07;63.33;99995.66;4991343;28;20101;-76
2023/10/09 03:01:38;;;;;;;24.33;14.35;;;;;;;17.07;63.38;99985.00;4968686;28;20496;-75
2023/10/09 03:04:14;;;;;;;25.45;14.35;;;;;;;17.10;63.54;99990.09;4973337;28;20047;-76
2023/10/09 03:06:51;;;;;;;31.05;15.77;;;;;;;17.12;63.28;99984.66;4991311;28;20066;-76
2023/10/09 03:09:19;;;;;;;25.35;14.95;;;;;;;17.12;63.22;99982.81;4991299;28;20061;-77
2023/10/09 03:11:53;;;;;;;26.55;14.10;;;;;;;17.14;63.50;99977.38;4991204;28;20117;-76
2023/10/09 03:14:21;;;;;;;25.70;13.60;;;;;;;17.18;63.08;99976.16;4990907;28;20054;-76
2023/10/09 03:16:50;;;;;;;25.13;14.32;;;;;;;17.19;62.96;99977.84;4990724;28;20055;-76
2023/10/09 03:19:17;;;;;;;26.17;15.00;;;;;;;17.22;62.75;99974.09;4991012;28;20050;-75
2023/10/09 03:21:43;;;;;;;28.55;15.15;;;;;;;17.24;62.95;99980.13;4973974;28;20137;-76
2023/10/09 03:24:11;;;;;;;25.00;14.15;;;;;;;17.25;62.84;99971.19;4973722;28;20113;-75
2023/10/09 03:26:38;;;;;;;24.80;14.27;;;;;;;17.26;62.73;99968.41;4973175;28;20766;-76
2023/10/09 03:29:09;;;;;;;23.67;13.95;;;;;;;17.27;62.76;99967.41;4990819;28;20085;-76
2023/10/09 03:31:37;;;;;;;26.20;13.63;;;;;;;17.29;62.73;99969.97;4993425;28;20086;-75
2023/10/09 03:34:06;;;;;;;31.92;15.73;;;;;;;17.30;62.65;99975.16;4995048;28;20054;-76
2023/10/09 03:36:37;;;;;;;28.70;14.60;;;;;;;17.32;62.71;99967.06;4994500;28;20635;-75
2023/10/09 03:39:18;;;;;;;23.92;14.07;;;;;;;17.34;62.65;99969.59;4995106;28;20058;-77
2023/10/09 03:41:47;;;;;;;21.38;13.23;;;;;;;17.36;62.70;99965.84;4994804;28;20069;-77
2023/10/09 03:44:17;;;;;;;28.52;14.70;;;;;;;17.36;62.69;99971.16;4994911;28;20055;-76
2023/10/09 03:46:45;;;;;;;27.05;14.82;;;;;;;17.39;62.69;99972.72;4994212;28;20616;-75
2023/10/09 03:49:13;;;;;;;24.48;14.77;;;;;;;17.39;62.68;99960.28;4994668;28;20050;-76
2023/10/09 03:51:40;;;;;;;28.55;15.55;;;;;;;17.42;62.52;99967.16;4994841;28;20145;-76
2023/10/09 03:54:07;;;;;;;28.65;15.50;;;;;;;17.44;62.45;99967.84;4994431;28;20047;-76
2023/10/09 03:56:35;;;;;;;25.27;15.02;;;;;;;17.45;62.43;99973.06;4994507;28;20046;-76
2023/10/09 03:59:04;;;;;;;22.92;14.90;;;;;;;17.46;62.42;99968.59;4994620;28;20050;-76
2023/10/09 04:01:37;;;;;;;26.27;14.98;;;;;;;17.47;62.46;99970.25;4977378;28;20105;-77
2023/10/09 04:04:10;;;;;;;26.45;16.02;;;;;;;17.48;62.48;99958.66;4994479;28;20050;-77
2023/10/09 04:06:37;;;;;;;26.05;14.90;;;;;;;17.49;62.58;99965.66;4994129;28;20430;-76
2023/10/09 04:12:12;;;;;;;24.40;15.85;;;;;;;17.50;63.12;99963.84;4994362;28;20844;-76
2023/10/09 04:17:34;;;;;;;27.02;16.02;;;;;;;17.52;62.94;99946.78;4993756;28;20061;-75
2023/10/09 04:22:59;;;;;;;26.73;15.52;;;;;;;17.55;62.68;99949.19;4994271;28;20054;-75
2023/10/09 04:25:28;;;;;;;23.45;14.73;;;;;;;17.55;62.66;99946.53;4993969;28;20081;-76
2023/10/09 04:30:55;;;;;;;30.80;16.52;;;;;;;17.58;63.02;99966.72;4976889;28;20084;-76
2023/10/09 04:38:55;;;;;;;28.85;15.45;;;;;;;17.62;63.17;99975.28;4987688;28;20450;-76
2023/10/09 04:41:32;;;;;;;29.23;15.65;;;;;;;17.63;63.07;99976.97;4993923;28;20080;-77
2023/10/09 04:49:49;;;;;;;24.88;15.20;;;;;;;17.65;63.02;99967.88;4985285;28;20050;-77
2023/10/09 04:52:51;;;;;;;25.20;15.25;;;;;;;17.67;63.44;99967.75;4993572;28;20561;-74
2023/10/09 04:58:00;;;;;;;27.63;15.75;;;;;;;17.70;63.70;99983.47;4986346;28;20105;-76
2023/10/09 05:03:12;;;;;;;28.67;16.95;;;;;;;17.70;63.93;99991.47;4993394;28;20058;-76
2023/10/09 05:08:19;;;;;;;27.05;15.57;;;;;;;17.75;63.31;99993.75;4993363;28;20053;-76
2023/10/09 05:16:25;;;;;;;28.90;16.35;;;;;;;17.78;63.71;100001.44;4993144;28;20426;-77
2023/10/09 05:18:59;;;;;;;27.67;15.85;;;;;;;17.78;63.65;100004.97;4970740;28;20060;-76
2023/10/09 05:21:44;;;;;;;26.45;16.17;;;;;;;17.77;64.28;100005.09;4992848;28;20137;-75
2023/10/09 05:29:24;;;;;;;28.63;16.45;;;;;;;17.80;63.89;100007.50;4992622;28;20065;-75
2023/10/09 05:34:33;;;;;;;24.98;16.33;;;;;;;17.79;63.77;100008.50;4976198;28;20058;-77
2023/10/09 05:47:53;;;;;;;30.15;17.80;;;;;;;17.74;64.94;100018.66;4985856;28;20149;-76
2023/10/09 06:03:23;;;;;;;29.40;16.50;;;;;;;17.77;64.10;100023.72;4992556;28;19922;-76
2023/10/09 06:17:01;;;;;;;29.48;17.23;;;;;;;17.68;66.08;100028.84;4992166;28;20093;-77
2023/10/09 06:19:40;;;;;;;28.03;17.23;;;;;;;17.71;65.98;100023.28;4991912;28;20050;-76
2023/10/09 06:23:16;;;;;;;34.80;17.85;;;;;;;17.71;66.22;100009.09;4991685;28;20092;-77
2023/10/09 06:25:51;;;;;;;27.55;17.23;;;;;;;17.75;65.81;100004.41;4984180;28;20046;-77
2023/10/09 06:28:32;;;;;;;32.67;18.27;;;;;;;17.78;65.82;100020.09;4991807;28;20108;-76
2023/10/09 06:31:27;;;;;;;27.95;17.15;;;;;;;17.79;65.33;100037.78;4989404;28;20502;-76
2023/10/09 06:34:15;;;;;;;30.17;17.35;;;;;;;17.80;65.45;100040.28;4984804;28;20126;-76
2023/10/09 06:36:52;;;;;;;28.40;16.70;;;;;;;17.82;65.38;100035.69;4983749;28;20149;-77
2023/10/09 06:42:30;;;;;;;34.42;18.08;;;;;;;17.85;65.33;100031.94;4967463;28;20046;-77
2023/10/09 06:44:59;;;;;;;29.05;16.77;;;;;;;17.88;65.60;100034.34;4991746;28;20048;-77
2023/10/09 06:47:25;;;;;;;28.10;18.08;;;;;;;17.88;65.78;100034.34;4974265;28;20137;-76
2023/10/09 06:55:32;;;;;;;29.67;17.90;;;;;;;17.92;65.85;100016.28;4991444;28;20046;-76
2023/10/09 06:58:01;;;;;;;28.75;17.00;;;;;;;17.94;66.30;100017.00;4991778;28;20042;-78
2023/10/09 07:03:13;;;;;;;31.02;18.45;;;;;;;17.97;66.17;100035.38;4987271;28;20042;-76
2023/10/09 07:06:05;;;;;;;28.73;18.00;;;;;;;17.97;66.58;100033.56;4990517;28;20100;-78
2023/10/09 07:08:37;;;;;;;30.75;16.77;;;;;;;18.00;66.16;100032.47;4991310;28;20058;-77
2023/10/09 07:14:06;;;;;;;26.30;16.58;;;;;;;18.02;66.23;100041.16;4987463;28;20701;-77
2023/10/09 07:16:39;;;;;;;;;;;;;;;18.02;66.28;100033.16;4991820;28;20042;-79
2023/10/09 07:19:35;;;;;;;29.52;16.90;;;;;;;18.07;65.48;100035.44;4991440;28;19922;-78
2023/10/09 07:22:02;;;;;;;24.43;16.80;;;;;;;18.08;65.92;100031.84;4990871;28;20058;-79
2023/10/09 07:24:49;;;;;;;26.95;16.55;;;;;;;18.07;66.27;100036.31;4990696;28;20097;-77
2023/10/09 07:27:17;;;;;;;24.73;16.05;;;;;;;18.07;66.31;100040.78;4973661;28;20042;-76
2023/10/09 07:29:50;;;;;;;27.92;16.58;;;;;;;18.06;66.66;100042.59;4991232;28;20043;-76
2023/10/09 07:32:20;;;;;;;32.03;17.77;;;;;;;18.07;66.57;100036.31;4990728;28;20125;-77
2023/10/09 07:34:53;;;;;;;35.88;17.80;;;;;;;18.08;66.97;100042.50;4983401;28;20053;-76
2023/10/09 07:37:22;;;;;;;;;;;;;;;18.08;66.63;100042.50;4991594;28;20046;-76
2023/10/09 07:39:57;;;;;;;26.73;15.63;;;;;;;18.14;66.32;100035.81;4966398;28;19922;-76
2023/10/09 07:42:52;;;;;;;26.27;16.42;;;;;;;18.14;66.50;100049.13;4990332;28;20050;-78
2023/10/09 07:48:05;;;;;;;29.90;16.88;;;;;;;18.13;67.17;100058.09;4990693;28;20065;-78
2023/10/09 07:50:49;;;;;;;29.90;17.83;;;;;;;18.13;67.57;100053.59;4990857;28;20536;-77
2023/10/09 07:53:25;;;;;;;28.20;17.02;;;;;;;18.16;66.84;100057.84;4990956;28;20050;-75
2023/10/09 07:55:56;;;;;;;29.58;18.35;;;;;;;18.14;66.76;100050.00;4983497;28;20450;-77
2023/10/09 07:58:27;;;;;;;27.50;17.15;;;;;;;18.16;66.93;100039.22;4991080;28;20054;-77
2023/10/09 08:01:07;;;;;;;27.42;18.27;;;;;;;18.15;67.06;100037.50;4991133;28;20053;-76
2023/10/09 08:03:35;;;;;;;27.38;17.58;;;;;;;18.16;67.24;100036.53;4990422;28;20046;-77
2023/10/09 08:11:59;;;;;;;29.70;17.73;;;;;;;18.16;67.65;100008.06;4990821;28;20549;-76
2023/10/09 08:20:11;;;;;;;28.38;17.25;;;;;;;18.19;67.05;100017.59;4956653;28;20078;-77
2023/10/09 08:22:44;;;;;;;32.17;17.30;;;;;;;18.19;67.37;100030.94;4994439;28;20129;-76
2023/10/09 08:25:25;;;;;;;27.55;17.02;;;;;;;18.19;67.70;100038.91;4993758;28;20046;-77
2023/10/09 08:28:39;;;;;;;28.30;17.92;;;;;;;18.20;67.95;100054.78;4992550;28;20046;-76
2023/10/09 08:30:50;;;;;;;;;;;;;;;18.20;67.88;100051.25;4994523;28;20069;-77
2023/10/09 08:36:04;;;;;;;27.25;17.60;;;;;;;18.25;67.67;100046.41;4971229;28;20054;-76
2023/10/09 08:38:33;;;;;;;27.25;16.58;;;;;;;18.26;67.63;100052.56;4993776;28;20485;-77
2023/10/09 08:41:15;;;;;;;26.40;17.15;;;;;;;18.24;68.83;100047.38;4994222;28;20042;-76
2023/10/09 08:43:53;;;;;;;28.77;18.27;;;;;;;18.23;69.25;100046.53;4993958;28;20125;-76
2023/10/09 08:46:26;;;;;;;29.08;17.63;;;;;;;18.28;68.06;100042.63;4993950;28;20129;-76
2023/10/09 09:55:22;;;;;;;25.95;16.83;;;;;;;19.02;69.41;100038.91;4972054;28;20066;-78
2023/10/09 09:57:52;;;;;;;27.58;16.52;;;;;;;19.08;69.63;100044.69;4973581;28;20053;-76
2023/10/09 10:00:42;;;;;;;25.48;17.95;;;;;;;19.09;70.06;100038.38;4973392;28;20049;-77
2023/10/09 10:03:15;;;;;;;30.63;17.83;;;;;;;19.12;69.92;100044.31;4967322;28;20053;-77
2023/10/09 10:05:46;;;;;;;26.25;17.77;;;;;;;19.16;69.33;100047.53;4973076;28;20079;-76
2023/10/09 10:08:19;;;;;;;26.38;18.02;;;;;;;19.16;69.63;100050.19;4956090;28;20061;-76
2023/10/09 10:10:49;;;;;;;28.48;17.95;;;;;;;19.18;69.22;100045.59;4972616;28;20043;-76
2023/10/09 10:13:27;;;;;;;28.70;17.40;;;;;;;19.20;69.09;100046.28;4972645;28;20047;-76
2023/10/09 10:16:02;;;;;;;25.33;16.98;;;;;;;19.19;69.97;100047.28;4972897;28;20077;-77
2023/10/09 10:18:33;;;;;;;28.58;17.60;;;;;;;19.21;69.64;100049.81;4973150;28;20126;-77
2023/10/09 10:21:33;;;;;;;25.73;16.58;;;;;;;19.21;70.15;100055.16;4972418;28;20057;-78
2023/10/09 10:24:05;;;;;;;26.02;16.80;;;;;;;19.26;69.24;100063.59;4972404;28;20047;-77
2023/10/09 10:26:35;;;;;;;25.83;17.00;;;;;;;19.25;69.06;100061.91;4972616;28;20484;-77
2023/10/09 10:29:22;;;;;;;31.48;18.00;;;;;;;19.20;69.71;100090.78;4972922;28;20051;-77
2023/10/09 10:31:57;;;;;;;25.10;17.40;;;;;;;19.21;69.74;100114.69;4972156;28;20101;-76
2023/10/09 10:34:25;;;;;;;25.23;15.85;;;;;;;19.21;69.14;100133.34;4955671;28;20074;-76
2023/10/09 10:36:58;;;;;;;27.50;16.30;;;;;;;19.20;68.92;100117.47;4972330;28;20491;-77
2023/10/09 10:39:42;;;;;;;;;;;;;;;19.17;69.33;100112.44;4973224;28;20051;-77
2023/10/09 10:42:33;;;;;;;23.67;15.38;;;;;;;19.20;68.58;100106.81;4971746;28;19961;-76
2023/10/09 10:44:57;;;;;;;27.90;16.00;;;;;;;19.17;68.62;100101.75;4971851;28;20042;-78
2023/10/09 10:47:32;;;;;;;23.38;17.15;;;;;;;19.10;69.65;100091.59;4972359;28;20137;-77
2023/10/09 10:50:11;;;;;;;24.02;16.15;;;;;;;19.08;69.15;100090.91;4955323;28;20129;-77
2023/10/09 10:52:44;;;;;;;23.60;16.02;;;;;;;19.08;69.59;100085.59;4971861;28;20057;-77
2023/10/09 10:58:02;;;;;;;23.98;15.57;;;;;;;19.08;69.63;100085.59;4971767;28;20105;-76
2023/10/09 11:03:29;;;;;;;27.92;16.45;;;;;;;19.09;70.39;100078.41;4971599;28;20415;-76
2023/10/09 11:06:13;;;;;;;26.83;16.42;;;;;;;19.10;70.77;100083.59;4971892;28;20097;-76
2023/10/09 11:08:54;;;;;;;25.67;16.05;;;;;;;19.10;70.93;100088.13;4972199;28;20043;-76
2023/10/09 11:11:22;;;;;;;29.58;15.90;;;;;;;19.13;70.28;100079.81;4954803;28;20062;-76
2023/10/09 11:13:58;;;;;;;27.05;16.55;;;;;;;19.14;69.96;100077.03;4971225;28;20081;-76
2023/10/09 11:19:12;;;;;;;29.48;18.90;;;;;;;19.16;69.92;100068.88;4971971;28;20146;-77
2023/10/09 11:21:42;;;;;;;23.00;15.73;;;;;;;19.18;70.52;100082.94;4971459;28;20149;-77
2023/10/09 11:24:24;;;;;;;27.23;16.00;;;;;;;19.19;70.71;100068.63;4964823;28;20050;-77
2023/10/09 11:26:55;;;;;;;28.65;15.88;;;;;;;19.23;70.55;100074.53;4952574;28;20125;-76
2023/10/09 11:29:23;;;;;;;24.60;15.07;;;;;;;19.27;71.17;100070.59;4954790;28;20047;-76
2023/10/09 11:32:00;;;;;;;22.10;15.63;;;;;;;19.27;72.12;100065.25;4971775;28;20051;-76
2023/10/09 11:34:37;;;;;;;25.42;17.10;;;;;;;19.36;71.55;100063.59;4966211;28;20503;-76
2023/10/09 11:37:11;;;;;;;23.85;15.68;;;;;;;19.39;72.08;100069.50;4971432;28;20070;-77
2023/10/09 11:39:50;;;;;;;22.35;16.05;;;;;;;19.49;71.37;100069.53;4971824;28;20145;-76
2023/10/09 11:45:19;;;;;;;22.35;15.27;;;;;;;19.65;71.48;100062.78;4970993;28;20093;-76
2023/10/09 11:47:56;;;;;;;23.83;15.40;;;;;;;19.71;71.36;100050.72;4971561;28;20055;-76
2023/10/09 11:50:43;;;;;;;22.05;14.40;;;;;;;19.73;71.83;100036.22;4971531;28;20459;-76
2023/10/09 11:55:53;;;;;;;26.50;14.82;;;;;;;19.88;70.90;100052.69;4972742;28;20054;-76
2023/10/09 11:58:24;;;;;;;26.33;14.93;;;;;;;19.93;70.98;100046.91;4975556;28;20046;-76
2023/10/09 12:01:04;;;;;;;24.60;15.93;;;;;;;20.00;71.24;100052.56;4975287;28;20054;-76
2023/10/09 12:03:32;;;;;;;23.30;14.45;;;;;;;20.08;71.30;100052.72;4975274;28;20662;-77
2023/10/09 12:06:05;;;;;;;24.67;15.07;;;;;;;20.17;71.44;100062.53;4974613;28;20101;-76
2023/10/09 12:08:33;;;;;;;22.15;14.55;;;;;;;20.27;71.28;100061.69;4958355;28;20054;-77
2023/10/09 12:11:08;;;;;;;23.23;14.25;;;;;;;20.36;71.09;100070.66;4975121;28;20053;-77
2023/10/09 12:13:38;;;;;;;24.20;13.73;;;;;;;20.44;70.63;100073.44;4974759;28;20522;-78
2023/10/09 12:16:10;;;;;;;26.98;15.50;;;;;;;20.51;70.83;100077.25;4974614;28;20086;-77
2023/10/09 12:18:40;;;;;;;24.80;14.45;;;;;;;20.59;70.64;100081.84;4957812;28;20086;-76
2023/10/09 12:21:07;;;;;;;21.02;13.98;;;;;;;20.65;70.36;100086.63;4974873;28;20054;-76
2023/10/09 12:23:36;;;;;;;18.20;12.93;;;;;;;20.70;69.93;100079.03;4975070;28;20049;-76
2023/10/09 12:26:04;;;;;;;17.52;11.48;;;;;;;20.72;69.56;100073.53;4974334;28;20094;-78
2023/10/09 12:28:34;;;;;;;20.45;12.75;;;;;;;20.72;69.02;100083.38;4957662;28;20094;-76
2023/10/09 12:31:01;;;;;;;19.80;12.07;;;;;;;20.69;68.87;100073.81;4974542;28;20145;-75
2023/10/09 12:33:29;;;;;;;20.15;11.93;;;;;;;20.65;68.72;100086.63;4974304;28;20054;-78
2023/10/09 12:36:00;;;;;;;15.70;10.32;;;;;;;20.61;68.81;100076.38;4972804;28;20077;-75
2023/10/09 12:38:31;;;;;;;18.92;10.40;;;;;;;20.56;68.81;100084.84;4974781;28;20121;-77
2023/10/09 12:41:18;;;;;;;15.98;9.77;;;;;;;20.49;69.51;100091.75;4974569;28;20089;-77
2023/10/09 12:43:46;;;;;;;16.90;9.90;;;;;;;20.47;68.90;100072.31;4974293;28;20082;-77
2023/10/09 12:46:16;;;;;;;14.45;8.73;;;;;;;20.44;69.15;100084.13;4974109;28;20050;-78
2023/10/09 12:48:46;;;;;;;17.85;9.35;;;;;;;20.38;69.08;100082.91;4974536;28;20053;-76
2023/10/09 12:51:16;;;;;;;15.38;9.43;;;;;;;20.37;69.43;100085.72;4974260;28;20097;-77
2023/10/09 12:53:44;;;;;;;18.38;9.52;;;;;;;20.35;69.17;100083.19;4974186;28;20051;-77
2023/10/09 12:56:15;;;;;;;12.43;8.25;;;;;;;20.34;69.36;100072.63;4973651;28;20062;-77
2023/10/09 12:58:52;;;;;;;14.88;8.02;;;;;;;20.33;69.35;100063.75;4974282;28;20518;-76
2023/10/09 13:01:20;;;;;;;16.88;8.48;;;;;;;20.33;69.31;100070.97;4974123;28;20484;-77
2023/10/09 13:03:49;;;;;;;14.65;8.02;;;;;;;20.31;69.46;100065.75;4973219;28;20082;-76
2023/10/09 13:06:23;;;;;;;12.73;7.60;;;;;;;20.29;69.28;100065.03;4971398;28;20423;-76
2023/10/09 13:08:51;;;;;;;15.15;8.20;;;;;;;20.27;69.56;100065.19;4974479;28;20054;-77
2023/10/09 13:11:19;;;;;;;16.10;8.00;;;;;;;20.27;69.65;100061.69;4966427;28;20130;-76
2023/10/09 13:13:50;;;;;;;14.38;7.63;;;;;;;20.27;69.70;100057.19;4973946;28;20061;-76
2023/10/09 13:16:24;;;;;;;15.27;7.50;;;;;;;20.27;70.23;100061.69;4968968;28;20489;-76
2023/10/09 13:18:56;;;;;;;14.43;6.85;;;;;;;20.29;69.96;100060.53;4973634;28;20094;-77
2023/10/09 13:21:26;;;;;;;12.25;6.78;;;;;;;20.33;69.90;100060.25;4971270;28;20081;-76
2023/10/09 13:23:57;;;;;;;17.63;7.22;;;;;;;20.34;69.86;100061.94;4973765;28;20047;-76
2023/10/09 13:26:30;;;;;;;12.00;6.50;;;;;;;20.36;69.61;100068.84;4973300;28;20070;-76
2023/10/09 13:29:01;;;;;;;13.40;6.25;;;;;;;20.37;69.56;100065.16;4956810;28;20582;-77
2023/10/09 13:31:31;;;;;;;15.80;6.85;;;;;;;20.37;69.48;100067.84;4973514;28;20050;-75
2023/10/09 13:33:59;;;;;;;10.45;6.40;;;;;;;20.39;69.46;100075.72;4956571;28;20047;-77
2023/10/09 13:36:27;;;;;;;12.35;6.55;;;;;;;20.38;69.32;100069.53;4973523;28;20086;-76
2023/10/09 13:38:55;;;;;;;15.10;6.15;;;;;;;20.40;69.29;100078.25;4973167;28;20077;-77
2023/10/09 13:41:25;;;;;;;11.40;6.05;;;;;;;20.41;69.63;100069.22;4966863;28;20268;-77
2023/10/09 13:43:52;;;;;;;12.00;5.78;;;;;;;20.40;69.32;100070.22;4973478;28;20062;-76
2023/10/09 13:46:19;;;;;;;13.23;5.95;;;;;;;20.41;69.45;100065.75;4973412;28;20038;-76
2023/10/09 13:48:49;;;;;;;11.77;6.35;;;;;;;20.42;69.50;100073.59;4955879;28;20109;-77
2023/10/09 13:51:18;;;;;;;14.20;6.38;;;;;;;20.43;69.68;100072.63;4972873;28;20042;-76
2023/10/09 13:53:47;;;;;;;18.15;6.78;;;;;;;20.46;69.94;100073.31;4973278;28;20047;-76
2023/10/09 13:56:21;;;;;;;13.85;6.25;;;;;;;20.47;69.99;100080.34;4973033;28;20500;-76
2023/10/09 13:58:51;;;;;;;9.98;5.78;;;;;;;20.50;69.67;100074.69;4973123;28;20106;-77
2023/10/09 14:01:27;;;;;;;11.38;6.50;;;;;;;20.54;69.57;100076.09;4973015;28;20054;-77
2023/10/09 14:03:55;;;;;;;12.50;6.60;;;;;;;20.56;69.48;100077.66;4973229;28;20050;-75
2023/10/09 14:06:32;;;;;;;14.50;6.30;;;;;;;20.57;69.36;100076.66;4965668;28;20046;-76
2023/10/09 14:09:05;;;;;;;10.88;5.45;;;;;;;20.58;69.18;100077.50;4955552;28;20475;-77
2023/10/09 14:11:32;;;;;;;12.10;6.47;;;;;;;20.59;69.11;100073.84;4972969;28;20075;-79
2023/10/09 14:14:01;;;;;;;22.63;7.03;;;;;;;20.61;69.11;100069.19;4973114;28;20073;-77
2023/10/09 14:16:42;;;;;;;14.27;6.60;;;;;;;20.63;69.01;100067.22;4972618;28;20051;-77
2023/10/09 14:19:13;;;;;;;13.82;5.97;;;;;;;20.65;69.30;100064.38;4972840;28;20047;-76
2023/10/09 14:21:40;;;;;;;13.32;6.55;;;;;;;20.68;69.37;100064.94;4972722;28;20047;-75
2023/10/09 14:24:17;;;;;;;14.55;6.85;;;;;;;20.72;69.43;100070.84;4972554;28;20059;-76
2023/10/09 14:26:46;;;;;;;12.57;6.57;;;;;;;20.77;69.26;100067.72;4972561;28;20046;-76
2023/10/09 14:29:16;;;;;;;13.05;6.47;;;;;;;20.80;69.14;100067.44;4972543;28;20211;-77
2023/10/09 14:31:49;;;;;;;15.73;6.60;;;;;;;20.84;69.16;100060.81;4972069;28;20062;-76
2023/10/09 14:34:16;;;;;;;13.18;6.25;;;;;;;20.89;69.08;100069.25;4956240;28;20062;-76
2023/10/09 14:36:43;;;;;;;24.05;6.65;;;;;;;20.93;69.14;100069.81;4972269;28;20081;-76
2023/10/09 14:39:18;;;;;;;14.65;6.50;;;;;;;20.96;68.55;100073.03;4955426;28;20082;-77
2023/10/09 14:41:45;;;;;;;11.75;6.13;;;;;;;20.99;68.26;100071.03;4972037;28;20050;-77
2023/10/09 14:44:16;;;;;;;13.70;6.60;;;;;;;20.99;68.26;100073.72;4972068;28;20491;-76
2023/10/09 14:46:43;;;;;;;17.50;7.07;;;;;;;20.99;68.19;100071.03;4972364;28;20051;-75
2023/10/09 14:49:13;;;;;;;13.25;5.70;;;;;;;20.98;67.96;100064.00;4972149;28;20050;-76
2023/10/09 14:51:44;;;;;;;14.85;6.00;;;;;;;20.99;68.33;100065.69;4972113;28;20054;-77
2023/10/09 14:54:15;;;;;;;18.48;6.60;;;;;;;20.99;68.23;100074.56;4972059;28;20058;-77
2023/10/09 14:56:42;;;;;;;15.90;6.38;;;;;;;20.99;67.95;100066.53;4954762;28;20101;-76
2023/10/09 14:59:10;;;;;;;12.15;5.65;;;;;;;20.99;68.15;100074.56;4972166;28;20047;-75
2023/10/09 15:01:37;;;;;;;10.60;5.75;;;;;;;20.98;68.08;100075.56;4971955;28;20038;-76
2023/10/09 15:04:04;;;;;;;11.38;6.35;;;;;;;21.00;68.63;100067.41;4970912;28;20092;-78
2023/10/09 15:06:31;;;;;;;10.60;5.82;;;;;;;21.02;68.75;100065.41;4971821;28;20057;-77
2023/10/09 15:09:07;;;;;;;11.05;5.97;;;;;;;21.05;68.46;100067.78;4971969;28;20082;-76
2023/10/09 15:11:38;;;;;;;18.55;6.43;;;;;;;21.06;68.05;100064.97;4972105;28;20051;-76
2023/10/09 15:14:06;;;;;;;11.77;5.57;;;;;;;21.07;67.83;100063.97;4968942;28;20066;-77